EST,Max TemperatureF,Mean TemperatureF,Min TemperatureF,Max Dew PointF,MeanDew PointF,Min DewpointF,Max Humidity, Mean Humidity, Min Humidity, Max Sea Level PressureIn, Mean Sea Level PressureIn, Min Sea Level PressureIn, Max VisibilityMiles, Mean VisibilityMiles, Min VisibilityMiles, Max Wind SpeedMPH, Mean Wind SpeedMPH, Max Gust SpeedMPH,PrecipitationIn, CloudCover, Events, WindDirDegrees
2012-12-1,28,26,24,27,21,4,100,82,36,30.66,30.59,30.52,10,6,2,6,2,,0.00,6,Rain-Snow,3
2012-12-2,47,38,28,44,32,26,100,95,83,30.52,30.31,30.03,10,2,0,6,0,,0.07,4,Fog-Rain,150
2012-12-3,55,43,31,45,39,29,100,87,53,30.33,30.11,30.02,10,5,0,17,3,17,0.00,2,Fog,273
2012-12-4,57,43,29,53,37,27,100,93,82,30.34,30.24,29.95,10,5,0,7,1,,0.00,7,Fog,315
2012-12-5,57,44,31,53,36,14,89,64,44,30.17,29.95,29.83,10,10,8,25,9,34,0.02,5,Rain,312
2012-12-6,39,30,22,18,16,14,81,57,35,30.35,30.29,30.18,10,10,10,18,9,34,0.00,1,,333
2012-12-7,43,32,21,37,28,16,100,86,63,30.30,30.16,30.04,10,8,2,7,1,,0.02,4,Rain,130
2012-12-8,39,38,36,39,37,36,100,95,93,30.05,29.96,29.87,6,2,0,9,1,,0.32,6,Fog-Rain,353
2012-12-9,45,38,32,38,33,26,100,88,48,30.31,30.13,29.95,10,6,0,10,2,,0.07,1,Fog-Rain,316
2012-12-10,44,40,35,45,39,34,100,96,93,30.16,29.86,29.50,5,2,0,7,1,,0.41,6,Fog-Rain,308
2012-12-11,45,38,32,44,33,20,96,76,58,30.16,29.88,29.60,10,10,10,13,4,,0.01,4,,309
2012-12-12,37,31,24,24,22,20,88,74,51,30.45,30.35,30.18,10,10,10,6,1,,0.00,0,,170
2012-12-13,41,30,20,25,22,17,92,79,47,30.49,30.41,30.30,10,10,9,6,0,,0.00,0,,65
2012-12-14,46,34,21,25,22,18,89,70,33,30.28,30.17,30.07,10,10,10,18,2,29,0.00,0,,273
2012-12-15,39,32,24,27,19,10,89,63,32,30.36,30.30,30.19,10,10,10,14,2,,0.00,3,,348
2012-12-16,28,26,24,23,20,13,93,80,59,30.36,30.23,30.14,10,5,1,10,3,,0.00,8,Rain-Snow,15
2012-12-17,34,29,24,34,28,23,100,92,86,30.12,30.00,29.84,7,3,1,13,7,24,0.00,6,Rain,1
2012-12-18,42,38,33,43,38,33,100,95,87,29.82,29.55,29.42,10,3,0,9,6,,1.09,6,Fog-Rain,331
2012-12-19,43,40,34,37,31,27,93,72,58,30.06,29.70,29.45,10,10,10,24,10,,0.00,4,Rain,327
2012-12-20,38,33,28,31,28,26,92,74,60,30.23,30.14,30.05,10,10,10,9,5,,0.00,6,,62
2012-12-21,52,42,32,49,38,32,100,89,70,30.02,29.56,29.05,10,5,1,28,8,50,0.71,7,Rain,108
2012-12-22,36,32,28,31,18,12,89,57,44,29.65,29.44,29.22,10,10,10,39,8,58,0.00,4,,296
2012-12-23,37,30,24,22,16,11,81,57,38,29.87,29.77,29.63,10,10,10,14,8,54,0.00,1,,289
2012-12-24,37,31,25,21,18,13,81,62,36,30.07,30.02,29.87,10,10,10,10,2,,0.00,0,,304
2012-12-25,34,30,25,25,20,13,86,72,60,30.25,30.09,30.02,10,9,2,17,6,25,0.00,5,Snow,335
2012-12-26,34,25,16,28,21,11,96,76,39,30.34,30.17,29.95,10,6,0,9,5,18,0.00,3,Fog,35
2012-12-27,35,32,28,30,28,23,100,90,75,29.93,29.60,29.36,10,3,0,28,11,46,0.00,7,Fog-Rain-Snow,1
2012-12-28,34,30,23,23,20,16,89,72,62,30.02,29.84,29.64,10,10,10,34,17,61,0.00,4,Snow,319
2012-12-29,30,24,18,28,24,15,100,89,72,30.02,29.68,29.46,10,4,0,23,4,40,0.00,4,Fog-Snow,355
2012-12-30,28,24,19,25,16,6,93,68,49,29.98,29.67,29.46,10,7,1,53,21,70,0.00,1,Snow,318
2012-12-31,32,26,20,23,16,8,78,64,54,30.03,29.94,29.77,10,10,4,26,12,58,0.00,3,,283